createdAt,value
2023-01-08T10:36:01.181Z,101148.39
2023-01-08T10:38:51.945Z,101147.02
2023-01-08T10:41:22.522Z,101146.15
2023-01-08T10:43:58.646Z,101136.27
2023-01-08T10:46:37.173Z,101129.22
2023-01-08T10:49:12.126Z,101129.60
2023-01-08T10:51:55.914Z,101129.86
2023-01-08T10:54:56.758Z,101126.20
2023-01-08T10:57:28.339Z,101134.48
2023-01-08T10:59:58.323Z,101137.13
2023-01-08T11:02:39.480Z,101130.81
2023-01-08T11:05:09.234Z,101126.41
2023-01-08T11:07:37.286Z,101126.39
2023-01-08T11:10:07.651Z,101127.27
2023-01-08T11:12:40.378Z,101128.85
2023-01-08T11:15:14.972Z,101128.30
2023-01-08T11:17:45.251Z,101122.32
2023-01-08T11:20:28.642Z,101124.09
2023-01-08T11:23:23.976Z,101118.48
2023-01-08T11:26:17.801Z,101123.75
2023-01-08T11:28:48.109Z,101127.77
2023-01-08T11:31:21.813Z,101133.54
2023-01-08T11:33:56.416Z,101124.55
2023-01-08T11:36:27.411Z,101122.43
2023-01-08T11:38:57.249Z,101127.70
2023-01-08T11:41:36.092Z,101125.26
2023-01-08T11:44:50.577Z,101125.44
2023-01-08T11:47:47.947Z,101128.59
2023-01-08T11:51:01.372Z,101111.91
2023-01-08T11:53:37.163Z,101115.60
2023-01-08T11:56:29.432Z,101103.50
2023-01-08T11:59:36.734Z,101099.45
2023-01-08T12:02:26.713Z,101103.69
2023-01-08T12:04:59.998Z,101097.89
2023-01-08T12:08:10.936Z,101107.20
2023-01-08T12:11:07.366Z,101102.63
2023-01-08T12:14:16.971Z,101099.81
2023-01-08T12:16:54.620Z,101096.65
2023-01-08T12:20:03.136Z,101097.70
2023-01-08T12:22:42.642Z,101094.02
2023-01-08T12:25:39.174Z,101097.69
2023-01-08T12:28:32.937Z,101088.55
2023-01-08T12:31:37.977Z,101083.99
2023-01-08T12:34:14.854Z,101086.83
2023-01-08T12:36:45.062Z,101083.16
2023-01-08T12:39:14.575Z,101088.96
2023-01-08T12:41:43.555Z,101082.80
2023-01-08T12:44:13.035Z,101080.70
2023-01-08T12:46:48.767Z,101074.20
2023-01-08T12:49:30.449Z,101074.20
2023-01-08T12:52:16.192Z,101068.05
2023-01-08T12:54:55.039Z,101065.94
2023-01-08T12:57:33.041Z,101065.95
2023-01-08T13:00:06.374Z,101058.58
2023-01-08T13:02:53.315Z,101058.21
2023-01-08T13:05:27.424Z,101061.02
2023-01-08T13:07:57.340Z,101054.16
2023-01-08T13:10:36.902Z,101056.09
2023-01-08T13:13:08.728Z,101056.77
2023-01-08T13:15:37.257Z,101056.24
2023-01-08T13:18:16.783Z,101051.30
2023-01-08T13:20:55.803Z,101049.68
2023-01-08T13:23:25.738Z,101061.60
2023-01-08T13:25:53.918Z,101066.48
2023-01-08T13:28:24.686Z,101063.64
2023-01-08T13:30:53.163Z,101062.92
2023-01-08T13:33:40.147Z,101071.80
2023-01-08T13:36:17.953Z,101070.53
2023-01-08T13:38:47.075Z,101073.65
2023-01-08T13:41:26.367Z,101070.30
2023-01-08T13:44:02.041Z,101075.36
2023-01-08T13:46:34.783Z,101070.22
2023-01-08T13:49:08.082Z,101066.15
2023-01-08T13:51:38.706Z,101069.27
2023-01-08T13:54:38.164Z,101071.35
2023-01-08T13:57:15.399Z,101067.10
2023-01-08T13:59:53.610Z,101067.27
2023-01-08T14:02:24.240Z,101067.98
2023-01-08T14:04:55.234Z,101061.86
2023-01-08T14:07:23.779Z,101060.47
2023-01-08T14:09:52.166Z,101056.83
2023-01-08T14:12:24.315Z,101052.10
2023-01-08T14:14:59.772Z,101049.46
2023-01-08T14:17:35.579Z,101052.98
2023-01-08T14:20:12.144Z,101051.59
2023-01-08T14:22:43.075Z,101045.27
2023-01-08T14:25:22.282Z,101039.13
2023-01-08T14:28:01.588Z,101032.65
2023-01-08T14:30:32.810Z,101030.00
2023-01-08T14:33:01.025Z,101033.84
2023-01-08T14:35:37.614Z,101028.57
2023-01-08T14:38:12.195Z,101022.39
2023-01-08T14:40:46.877Z,101016.95
2023-01-08T14:43:20.054Z,101012.19
2023-01-08T14:45:49.381Z,101024.09
2023-01-08T14:48:40.159Z,101021.94
2023-01-08T14:51:14.551Z,101026.12
2023-01-08T14:53:45.897Z,101018.95
2023-01-08T14:56:20.923Z,101026.11
2023-01-08T14:59:00.610Z,101023.30
2023-01-08T15:01:31.168Z,101022.21
2023-01-08T15:04:19.994Z,101024.80
2023-01-08T15:06:48.668Z,101022.71
2023-01-08T15:09:24.141Z,101021.68
2023-01-08T15:11:58.064Z,101016.78
2023-01-08T15:14:28.629Z,101019.56
2023-01-08T15:16:59.048Z,101009.91
2023-01-08T15:19:29.648Z,101021.61
2023-01-08T15:21:59.141Z,101013.52
2023-01-08T15:24:32.393Z,101015.08
2023-01-08T15:27:00.261Z,101018.89
2023-01-08T15:29:33.190Z,101022.37
2023-01-08T15:32:23.246Z,101025.69
2023-01-08T15:34:51.188Z,101026.70
2023-01-08T15:37:20.449Z,101020.89
2023-01-08T15:39:50.129Z,101026.14
2023-01-08T15:42:47.359Z,101030.15
2023-01-08T15:45:16.927Z,101021.75
2023-01-08T15:47:46.732Z,101026.11
2023-01-08T18:01:33.617Z,101044.14
2023-01-08T18:04:03.267Z,101047.27
2023-01-08T18:06:30.731Z,101047.11
2023-01-08T18:09:00.134Z,101042.39
2023-01-08T18:11:28.317Z,101046.73
2023-01-08T18:14:03.988Z,101048.70
2023-01-08T18:16:38.394Z,101046.98
2023-01-08T18:19:08.388Z,101042.44
2023-01-08T18:21:40.154Z,101038.54
2023-01-08T18:24:09.347Z,101040.42
2023-01-08T18:26:37.634Z,101043.02
2023-01-08T18:29:07.811Z,101046.67
2023-01-08T18:31:45.836Z,101044.94
2023-01-08T18:34:14.784Z,101038.48
2023-01-08T18:36:54.779Z,101041.09
2023-01-08T18:39:29.522Z,101040.24
2023-01-08T18:42:19.258Z,101035.36
2023-01-08T18:44:56.220Z,101035.69
2023-01-08T18:47:29.972Z,101035.80
2023-01-08T18:50:06.387Z,101024.77
2023-01-08T18:52:46.256Z,101020.73
2023-01-08T18:55:17.925Z,101013.08
2023-01-08T18:58:00.337Z,101020.43
2023-01-08T19:00:38.096Z,101016.95
2023-01-08T19:03:17.266Z,101015.36
2023-01-08T19:05:58.266Z,101013.95
2023-01-08T19:08:25.800Z,101017.95
2023-01-08T19:10:57.491Z,101023.89
2023-01-08T19:13:27.424Z,101021.95
2023-01-08T19:15:55.647Z,101025.23
2023-01-08T19:18:29.684Z,101031.50
2023-01-08T19:21:00.163Z,101019.98
2023-01-08T19:23:40.054Z,101013.91
2023-01-08T19:26:10.043Z,101015.64
2023-01-08T19:28:38.692Z,101023.11
2023-01-08T19:31:18.318Z,101022.28
2023-01-08T19:33:46.591Z,101018.51
2023-01-08T19:36:16.157Z,101021.48
2023-01-08T19:38:46.785Z,101019.22
2023-01-08T19:41:33.716Z,101023.55
2023-01-08T19:44:02.422Z,101016.70
2023-01-08T19:46:34.965Z,101014.58
2023-01-08T19:49:08.635Z,101012.11
2023-01-08T19:51:36.469Z,101011.24
2023-01-08T19:54:11.551Z,101004.46
2023-01-08T19:56:39.133Z,101001.65
2023-01-08T19:59:08.025Z,100999.58
2023-01-08T20:01:41.428Z,101000.11
2023-01-08T20:04:10.740Z,101007.65
2023-01-08T20:06:38.663Z,101011.16
2023-01-08T20:09:08.603Z,101009.98
2023-01-08T20:11:37.468Z,101007.90
2023-01-08T20:14:05.514Z,101011.03
2023-01-08T20:16:34.611Z,101000.92
2023-01-08T20:19:04.009Z,100995.91
2023-01-08T20:21:34.302Z,101001.33
2023-01-08T20:24:09.311Z,100990.13
2023-01-08T20:26:38.398Z,100992.09
2023-01-08T20:29:06.691Z,100997.36
2023-01-08T20:31:35.712Z,100992.33
2023-01-08T20:34:06.742Z,100990.77
2023-01-08T20:36:36.977Z,100988.02
2023-01-08T20:39:07.329Z,100986.59
2023-01-08T20:41:36.697Z,100983.60
2023-01-08T20:44:09.043Z,100987.09
2023-01-08T20:46:48.744Z,100986.84
2023-01-08T20:49:19.953Z,100985.33
2023-01-08T20:52:06.935Z,100982.91
2023-01-08T20:54:34.555Z,100983.48
2023-01-08T20:57:01.903Z,100987.22
2023-01-08T20:59:30.342Z,100990.22
2023-01-08T21:02:01.351Z,100987.29
2023-01-08T21:04:28.594Z,100984.00
2023-01-08T21:06:59.709Z,100980.05
2023-01-08T21:09:34.266Z,100976.94
2023-01-08T21:12:03.316Z,100969.46
2023-01-08T21:14:32.172Z,100969.09
2023-01-08T21:17:01.682Z,100964.91
2023-01-08T21:19:32.442Z,100970.36
2023-01-08T21:21:59.979Z,100968.99
2023-01-08T21:24:33.982Z,100959.77
2023-01-08T21:27:03.308Z,100956.48
2023-01-08T21:29:31.413Z,100952.44
2023-01-08T21:32:00.674Z,100973.05
2023-01-08T21:34:34.807Z,100951.72
2023-01-08T21:37:08.448Z,100962.56
2023-01-08T21:39:37.175Z,100958.40
2023-01-08T21:42:23.884Z,100959.29
2023-01-08T21:45:09.940Z,100966.98
2023-01-08T21:47:38.359Z,100953.29
2023-01-08T21:50:12.519Z,100955.88
2023-01-08T21:52:58.916Z,100955.16
2023-01-08T21:55:26.460Z,100957.79
2023-01-08T21:57:54.813Z,100953.61
2023-01-08T22:00:24.511Z,100940.31
2023-01-08T22:02:56.883Z,100931.73
2023-01-08T22:05:27.458Z,100932.61
2023-01-08T22:07:58.453Z,100929.46
2023-01-08T22:10:28.171Z,100936.64
2023-01-08T22:13:01.515Z,100918.10
2023-01-08T22:15:39.528Z,100917.02
2023-01-08T22:18:31.767Z,100928.38
2023-01-08T22:21:12.990Z,100915.60
2023-01-08T22:23:49.877Z,100925.04
2023-01-08T22:26:22.855Z,100917.36
2023-01-08T22:28:55.456Z,100922.09
2023-01-08T22:31:27.874Z,100913.52
2023-01-08T22:33:59.248Z,100914.42
2023-01-08T22:36:28.908Z,100908.00
2023-01-08T22:38:57.026Z,100897.16
2023-01-08T22:41:25.216Z,100885.27
2023-01-08T22:44:00.884Z,100882.16
2023-01-08T22:46:32.407Z,100886.02
2023-01-08T22:49:00.409Z,100883.94
2023-01-08T22:51:27.976Z,100883.10
2023-01-08T22:53:56.145Z,100874.73
2023-01-08T22:56:23.580Z,100879.09
2023-01-08T22:58:51.285Z,100879.44
2023-01-08T23:01:23.139Z,100875.45
2023-01-08T23:03:50.981Z,100870.73
2023-01-08T23:06:19.588Z,100880.05
2023-01-08T23:08:47.025Z,100870.79
2023-01-08T23:11:17.616Z,100876.20
2023-01-08T23:13:45.034Z,100874.98
2023-01-08T23:16:14.690Z,100869.39
2023-01-08T23:18:42.627Z,100870.09
2023-01-08T23:21:16.077Z,100856.98
2023-01-08T23:23:44.623Z,100858.05
2023-01-08T23:26:23.271Z,100854.21
2023-01-08T23:28:52.577Z,100848.45
2023-01-08T23:31:23.177Z,100847.41
2023-01-08T23:33:51.101Z,100847.23
2023-01-08T23:36:20.810Z,100849.70
2023-01-08T23:38:52.857Z,100842.89
2023-01-08T23:41:25.457Z,100832.59
2023-01-08T23:44:02.986Z,100829.81
2023-01-08T23:46:31.281Z,100838.60
2023-01-08T23:48:59.938Z,100833.71
2023-01-08T23:51:27.608Z,100837.38
2023-01-08T23:53:54.719Z,100831.61
2023-01-08T23:56:28.615Z,100835.13
2023-01-08T23:58:56.901Z,100834.10
